Saugus, CA

3:41 PM PDT on September 28, 2016 (GMT -0700)
AA6RV WX Station, California Canyons | | Change Station

Elev 1928 ft 34.46 °N, 118.39 °W | Updated 1 minute ago

Partly Cloudy
Partly Cloudy
92.4 °F
Feels Like 90 °F
N
1.0
Wind Variable Wind from South
Gusts 6.0 mph

Today
High -- | Low -- °F
--% Chance of Precip.
Yesterday
High -- | Low -- °F
Precip. -- in
Pressure 29.97 in
Visibility 10.0 miles
Clouds Few 15000 ft
Heat Index 90 °F
Dew Point 53 °F
Humidity 26%
Rainfall 0.00 in
Snow Depth Not available.
6:46 AM 6:41 PM
Waning Crescent, 4% visible
METAR KWHP 281953Z 16006KT 10SM FEW150 30/08 A2997
Pressure 29.97 in
Visibility 10.0 miles
Clouds Few 15000 ft
Heat Index 90 °F
Dew Point 53 °F
Humidity 26%
Rainfall 0.00 in
Snow Depth Not available.
6:46 AM 6:41 PM
Waning Crescent, 4% visible
METAR KWHP 281953Z 16006KT 10SM FEW150 30/08 A2997

10-Day Weather Forecast

Almanac

Astronomy

Sep. 28, 2016 Rise Set
Actual Time
Civil Twilight
Nautical Twilight
Astronomical Twilight
Moon
Length of Visible Light
Length of Day
Tomorrow will be .
, % of the Moon is Illuminated

Today's Extremes

State Highs State Lows

Community

WunderPhotos

Upload Photos

1,942,339 photos uploaded!

WunderBlog® & News

Nearby

Air Quality

  Air Quality AQ Index Pollutant
Not available.

Snow Depth

Station Depth Elevation

Earthquake Activity

City Distance Mag. Time & Date
Minimum magnitude displayed is 2.5.

Coastal Water Temperatures

Place Temperature

Stations

Nearby Weather Stations

Station Location Temp. Windchill Dew Point Humidity Wind Precip. Elev Updated Type
                   

Watches & Warnings

There are currently no watches in effect.